createdAt,value
2022-12-15T00:02:00.647Z,-5.50
2022-12-15T00:04:46.927Z,-5.58
2022-12-15T00:07:34.964Z,-5.60
2022-12-15T00:10:44.972Z,-5.64
2022-12-15T00:13:32.631Z,-5.67
2022-12-15T00:16:24.012Z,-5.66
2022-12-15T00:19:11.416Z,-5.65
2022-12-15T00:21:57.568Z,-5.63
2022-12-15T00:24:43.582Z,-5.62
2022-12-15T00:27:30.534Z,-5.63
2022-12-15T00:30:37.215Z,-5.62
2022-12-15T00:33:29.734Z,-5.59
2022-12-15T00:36:37.193Z,-5.57
2022-12-15T00:39:11.659Z,-5.51
2022-12-15T00:42:04.713Z,-5.46
2022-12-15T00:44:53.822Z,-5.39
2022-12-15T00:47:43.737Z,-5.33
2022-12-15T00:50:50.952Z,-5.29
2022-12-15T00:53:39.300Z,-5.25
2022-12-15T00:56:45.422Z,-5.22
2022-12-15T00:59:54.290Z,-5.20
2022-12-15T01:02:41.095Z,-5.15
2022-12-15T01:05:48.910Z,-5.12
2022-12-15T01:08:54.976Z,-5.12
2022-12-15T01:11:42.165Z,-5.12
2022-12-15T01:14:53.386Z,-5.10
2022-12-15T01:17:42.245Z,-5.08
2022-12-15T01:20:41.733Z,-5.05
2022-12-15T01:23:11.808Z,-5.03
2022-12-15T01:26:02.117Z,-5.01
2022-12-15T01:28:55.656Z,-5.00
2022-12-15T01:31:45.687Z,-5.01
2022-12-15T01:34:41.151Z,-4.98
2022-12-15T01:37:30.893Z,-4.94
2022-12-15T01:40:20.645Z,-4.91
2022-12-15T01:42:54.705Z,-4.89
2022-12-15T01:46:00.480Z,-4.85
2022-12-15T01:48:55.000Z,-4.80
2022-12-15T01:51:55.208Z,-4.78
2022-12-15T01:54:52.463Z,-4.76
2022-12-15T01:57:48.448Z,-4.73
2022-12-15T02:00:18.559Z,-4.71
2022-12-15T02:03:13.261Z,-4.69
2022-12-15T02:06:10.554Z,-4.68
2022-12-15T02:09:01.111Z,-4.66
2022-12-15T02:12:05.333Z,-4.63
2022-12-15T02:15:10.651Z,-4.60
2022-12-15T02:18:13.396Z,-4.57
2022-12-15T02:21:00.481Z,-4.55
2022-12-15T02:23:57.150Z,-4.52
2022-12-15T02:27:24.892Z,-4.50
2022-12-15T02:30:33.392Z,-4.47
2022-12-15T02:33:36.406Z,-4.46
2022-12-15T02:36:34.374Z,-4.43
2022-12-15T02:39:26.213Z,-4.41
2022-12-15T02:42:18.537Z,-4.41
2022-12-15T02:45:12.780Z,-4.40
2022-12-15T02:48:13.190Z,-4.38
2022-12-15T02:51:01.072Z,-4.36
2022-12-15T02:53:51.161Z,-4.32
2022-12-15T02:57:01.798Z,-4.30
2022-12-15T02:59:58.447Z,-4.28
2022-12-15T03:02:58.167Z,-4.27
2022-12-15T03:05:26.811Z,-4.25
2022-12-15T03:08:32.347Z,-4.27
2022-12-15T03:11:22.783Z,-4.28
2022-12-15T03:14:16.866Z,-4.30
2022-12-15T03:17:10.024Z,-4.30
2022-12-15T03:20:01.392Z,-4.28
2022-12-15T03:22:56.193Z,-4.27
2022-12-15T03:25:50.063Z,-4.25
2022-12-15T03:28:22.667Z,-4.23
2022-12-15T03:31:18.711Z,-4.22
2022-12-15T03:34:09.561Z,-4.21
2022-12-15T03:37:01.714Z,-4.21
2022-12-15T03:39:56.005Z,-4.22
2022-12-15T03:42:50.618Z,-4.22
2022-12-15T03:45:45.948Z,-4.21
2022-12-15T03:48:35.338Z,-4.18
2022-12-15T03:51:26.240Z,-4.16
2022-12-15T03:54:17.395Z,-4.13
2022-12-15T03:57:12.256Z,-4.12
2022-12-15T04:00:06.022Z,-4.09
2022-12-15T04:02:57.719Z,-4.08
2022-12-15T04:05:56.606Z,-4.05
2022-12-15T04:08:56.193Z,-4.04
2022-12-15T04:11:49.043Z,-4.01
2022-12-15T04:14:41.866Z,-3.99
2022-12-15T04:17:32.930Z,-3.96
2022-12-15T04:20:26.474Z,-3.93
2022-12-15T04:23:17.503Z,-3.90
2022-12-15T04:26:26.223Z,-3.87
2022-12-15T04:29:33.295Z,-3.83
2022-12-15T04:32:25.109Z,-3.78
2022-12-15T04:35:15.936Z,-3.75
2022-12-15T04:38:23.417Z,-3.70
2022-12-15T04:41:12.245Z,-3.67
2022-12-15T04:44:01.479Z,-3.64
2022-12-15T04:46:48.610Z,-3.62
2022-12-15T04:49:34.869Z,-3.59
2022-12-15T04:52:21.279Z,-3.58
2022-12-15T04:55:08.505Z,-3.55
2022-12-15T04:57:56.917Z,-3.52
2022-12-15T05:00:44.622Z,-3.50
2022-12-15T05:03:33.650Z,-3.48
2022-12-15T05:06:40.761Z,-3.46
2022-12-15T05:09:50.319Z,-3.44
2022-12-15T05:12:37.720Z,-3.42
2022-12-15T05:15:24.255Z,-3.40
2022-12-15T05:18:11.109Z,-3.41
2022-12-15T05:21:19.964Z,-3.39
2022-12-15T05:24:15.603Z,-3.38
2022-12-15T05:27:22.803Z,-3.37
2022-12-15T05:30:17.755Z,-3.35
2022-12-15T05:33:17.500Z,-3.32
2022-12-15T05:36:35.341Z,-3.30
2022-12-15T05:39:08.722Z,-3.27
2022-12-15T05:41:58.621Z,-3.25
2022-12-15T05:44:58.376Z,-3.23
2022-12-15T05:47:56.808Z,-3.21
2022-12-15T05:50:51.286Z,-3.20
2022-12-15T05:53:42.313Z,-3.17
2022-12-15T05:56:36.876Z,-3.15
2022-12-15T05:59:27.146Z,-3.15
2022-12-15T06:02:17.142Z,-3.14
2022-12-15T06:04:50.717Z,-3.11
2022-12-15T06:07:26.292Z,-3.11
2022-12-15T06:10:16.380Z,-3.10
2022-12-15T06:12:48.685Z,-3.09
2022-12-15T06:15:45.102Z,-3.08
2022-12-15T06:18:42.134Z,-3.07
2022-12-15T06:21:35.425Z,-3.06
2022-12-15T06:24:40.077Z,-3.06
2022-12-15T06:27:31.271Z,-3.06
2022-12-15T06:30:23.479Z,-3.05
2022-12-15T06:33:00.153Z,-3.04
2022-12-15T06:35:28.084Z,-3.00
2022-12-15T06:37:55.672Z,-2.96
2022-12-15T06:40:23.270Z,-2.94
2022-12-15T06:42:51.243Z,-2.91
2022-12-15T06:45:19.292Z,-2.90
2022-12-15T06:47:49.390Z,-2.89
2022-12-15T06:50:17.031Z,-2.87
2022-12-15T06:52:47.328Z,-2.85
2022-12-15T06:55:16.016Z,-2.83
2022-12-15T06:57:43.648Z,-2.81
2022-12-15T07:00:12.923Z,-2.78
2022-12-15T07:02:42.095Z,-2.76
2022-12-15T07:05:09.967Z,-2.76
2022-12-15T07:07:37.592Z,-2.75
2022-12-15T07:10:10.538Z,-2.75
2022-12-15T07:12:38.338Z,-2.75
2022-12-15T07:15:07.700Z,-2.74
2022-12-15T07:17:36.301Z,-2.73
2022-12-15T07:20:04.484Z,-2.72
2022-12-15T07:22:32.085Z,-2.72
2022-12-15T07:24:59.924Z,-2.72
2022-12-15T07:27:30.046Z,-2.69
2022-12-15T07:29:58.965Z,-2.66
2022-12-15T07:32:26.730Z,-2.64
2022-12-15T07:34:54.880Z,-2.63
2022-12-15T07:37:22.718Z,-2.61
2022-12-15T07:39:50.294Z,-2.61
2022-12-15T07:42:18.946Z,-2.57
2022-12-15T07:44:46.813Z,-2.55
2022-12-15T07:47:17.706Z,-2.54
2022-12-15T07:49:45.674Z,-2.53
2022-12-15T07:52:13.428Z,-2.51
2022-12-15T07:54:41.161Z,-2.48
2022-12-15T07:57:08.760Z,-2.48
2022-12-15T07:59:36.300Z,-2.48
2022-12-15T08:02:04.994Z,-2.48
2022-12-15T08:04:37.787Z,-2.47
2022-12-15T08:07:09.168Z,-2.46
2022-12-15T08:09:37.527Z,-2.44
2022-12-15T08:12:05.910Z,-2.42
2022-12-15T08:14:34.834Z,-2.39
2022-12-15T08:17:03.583Z,-2.38
2022-12-15T08:19:31.218Z,-2.33
2022-12-15T08:21:58.817Z,-2.29
2022-12-15T08:24:26.468Z,-2.26
2022-12-15T08:26:58.160Z,-2.26
2022-12-15T08:29:50.240Z,-2.26
2022-12-15T08:32:13.704Z,-2.26
2022-12-15T08:34:44.833Z,-2.22
2022-12-15T08:37:12.386Z,-2.17
2022-12-15T08:39:39.914Z,-2.16
2022-12-15T08:42:07.532Z,-2.17
2022-12-15T08:44:35.841Z,-2.17
2022-12-15T08:47:03.462Z,-2.17
2022-12-15T08:49:31.060Z,-2.17
2022-12-15T08:51:58.680Z,-2.09
2022-12-15T08:54:26.322Z,-1.94
2022-12-15T08:56:54.027Z,-1.80
2022-12-15T08:59:21.624Z,-1.75
2022-12-15T09:01:49.352Z,-1.74
2022-12-15T09:04:19.424Z,-1.72
2022-12-15T09:06:50.316Z,-1.70
2022-12-15T09:09:19.967Z,-1.69
2022-12-15T09:11:47.860Z,-1.75
2022-12-15T09:14:16.278Z,-1.75
2022-12-15T09:16:50.664Z,-1.70
2022-12-15T09:19:19.107Z,-1.65
2022-12-15T09:21:47.604Z,-1.60
2022-12-15T09:24:27.456Z,-1.53
2022-12-15T09:27:02.766Z,-1.45
2022-12-15T09:29:30.324Z,-1.32
2022-12-15T09:31:58.280Z,-1.15
2022-12-15T09:34:25.876Z,-1.05
2022-12-15T09:36:53.522Z,-1.05
2022-12-15T09:39:21.406Z,-1.09
2022-12-15T09:41:55.072Z,-1.11
2022-12-15T09:44:25.388Z,-1.11
2022-12-15T09:47:05.677Z,-1.16
2022-12-15T09:49:49.932Z,-1.25
2022-12-15T09:52:19.879Z,-1.39
2022-12-15T09:54:49.001Z,-1.53
2022-12-15T09:57:29.079Z,-1.67
2022-12-15T10:00:07.040Z,-1.76
2022-12-15T10:03:22.999Z,-1.81
2022-12-15T10:08:54.137Z,-1.88
2022-12-15T10:11:35.976Z,-1.89
2022-12-15T10:14:12.837Z,-1.83
2022-12-15T10:16:58.005Z,-1.81
2022-12-15T10:19:37.081Z,-1.75
2022-12-15T10:22:10.207Z,-1.68
2022-12-15T10:25:08.445Z,-1.67
2022-12-15T10:28:00.449Z,-1.65
2022-12-15T10:30:28.189Z,-1.61
2022-12-15T10:33:01.478Z,-1.57
2022-12-15T10:35:32.018Z,-1.58
2022-12-15T10:38:02.931Z,-1.64
2022-12-15T10:40:51.198Z,-1.67
2022-12-15T10:43:26.731Z,-1.71
2022-12-15T10:46:12.943Z,-1.73
2022-12-15T10:48:41.438Z,-1.71
2022-12-15T10:51:21.554Z,-1.71
2022-12-15T10:53:52.185Z,-1.73
2022-12-15T10:56:30.630Z,-1.74
2022-12-15T10:59:24.128Z,-1.75
2022-12-15T11:01:52.673Z,-1.79
2022-12-15T11:04:28.732Z,-1.83
2022-12-15T11:07:00.733Z,-1.88
2022-12-15T11:09:33.791Z,-1.91
2022-12-15T11:12:26.314Z,-1.93
2022-12-15T11:14:53.850Z,-1.92
2022-12-15T11:17:23.179Z,-1.91
2022-12-15T11:20:03.111Z,-1.90
2022-12-15T11:22:52.858Z,-1.85
2022-12-15T11:25:33.560Z,-1.78
2022-12-15T11:28:06.561Z,-1.74
2022-12-15T11:30:44.809Z,-1.67
2022-12-15T11:33:12.829Z,-1.58
2022-12-15T11:35:58.020Z,-1.53
2022-12-15T11:38:34.418Z,-1.50
2022-12-15T11:41:08.679Z,-1.42
2022-12-15T11:43:54.690Z,-1.37
2022-12-15T11:46:33.035Z,-1.30
2022-12-15T11:49:19.611Z,-1.22
2022-12-15T11:51:55.028Z,-1.13
2022-12-15T11:54:30.106Z,-1.14
2022-12-15T11:57:04.129Z,-1.22
2022-12-15T11:59:54.774Z,-1.23
2022-12-15T12:02:49.893Z,-1.11
2022-12-15T12:05:38.959Z,-0.96
2022-12-15T12:08:21.989Z,-0.84
2022-12-15T12:10:59.254Z,-0.76
2022-12-15T12:13:35.978Z,-0.69
2022-12-15T12:16:14.818Z,-0.63
2022-12-15T12:18:50.636Z,-0.58
2022-12-15T12:21:23.491Z,-0.56
2022-12-15T12:23:58.630Z,-0.52
2022-12-15T12:26:32.534Z,-0.48
2022-12-15T12:29:08.329Z,-0.42
2022-12-15T12:31:45.104Z,-0.31
2022-12-15T12:34:15.337Z,-0.16
2022-12-15T12:36:44.482Z,-0.02
2022-12-15T12:39:23.601Z,0.14
2022-12-15T12:42:03.141Z,0.33
2022-12-15T12:44:33.710Z,0.57
2022-12-15T12:47:12.632Z,0.72
2022-12-15T12:49:44.845Z,0.83
2022-12-15T12:52:21.930Z,1.08
2022-12-15T12:54:56.856Z,1.86
2022-12-15T12:57:42.357Z,3.28
2022-12-15T13:00:19.953Z,4.56
2022-12-15T13:03:19.832Z,5.48
2022-12-15T13:05:50.968Z,6.24
2022-12-15T13:08:42.196Z,6.91
2022-12-15T13:11:42.006Z,7.61
2022-12-15T13:14:22.541Z,8.19
2022-12-15T13:17:25.602Z,8.54
2022-12-15T13:20:28.672Z,8.47
2022-12-15T13:23:11.622Z,8.57
2022-12-15T13:25:41.600Z,8.83
2022-12-15T13:28:24.888Z,8.33
2022-12-15T13:31:31.985Z,7.16
2022-12-15T13:34:20.885Z,5.96
2022-12-15T13:36:55.109Z,5.16
2022-12-15T13:39:54.956Z,4.65
2022-12-15T13:42:34.949Z,4.05
2022-12-15T13:45:28.705Z,3.50
2022-12-15T13:47:56.809Z,2.99
2022-12-15T13:50:43.813Z,2.63
2022-12-15T13:53:19.690Z,2.33
2022-12-15T13:56:00.530Z,2.12
2022-12-15T13:58:33.491Z,1.91
2022-12-15T14:01:03.155Z,1.65
2022-12-15T14:03:31.536Z,1.36
2022-12-15T14:06:01.043Z,1.11
2022-12-15T14:08:31.141Z,0.91
2022-12-15T14:11:07.045Z,0.68
2022-12-15T14:13:46.924Z,0.48
2022-12-15T14:16:22.324Z,0.32
2022-12-15T14:19:12.935Z,0.15
2022-12-15T14:21:47.684Z,-0.07
2022-12-15T14:24:39.070Z,-0.29
2022-12-15T14:27:07.879Z,-0.50
2022-12-15T14:29:35.845Z,-0.66
2022-12-15T14:32:04.889Z,-0.79
2022-12-15T14:34:38.173Z,-0.93
2022-12-15T14:37:12.719Z,-1.08
2022-12-15T14:39:44.375Z,-1.22
2022-12-15T14:42:21.355Z,-1.36
2022-12-15T14:44:51.341Z,-1.48
2022-12-15T14:47:26.124Z,-1.62
2022-12-15T14:49:56.016Z,-1.75
2022-12-15T14:52:29.735Z,-1.86
2022-12-15T14:55:07.272Z,-1.98
2022-12-15T14:57:43.476Z,-2.10
2022-12-15T15:00:25.583Z,-2.20
2022-12-15T15:03:10.218Z,-1.85
2022-12-15T15:03:19.736Z,-2.30
2022-12-15T15:05:54.583Z,-2.41
2022-12-15T15:08:29.808Z,-2.49
2022-12-15T15:11:00.771Z,-2.57
2022-12-15T15:13:39.850Z,-2.65
2022-12-15T15:16:15.120Z,-2.72
2022-12-15T15:18:44.489Z,-2.81
2022-12-15T15:21:17.838Z,-2.89
2022-12-15T15:24:00.457Z,-2.97
2022-12-15T15:26:28.798Z,-3.04
2022-12-15T15:28:56.921Z,-3.10
2022-12-15T15:31:35.251Z,-3.17
2022-12-15T15:34:10.695Z,-3.24
2022-12-15T15:36:39.513Z,-3.29
2022-12-15T15:39:15.050Z,-3.35
2022-12-15T15:41:43.046Z,-3.41
2022-12-15T15:44:14.169Z,-3.45
2022-12-15T15:46:46.650Z,-3.50
2022-12-15T15:49:21.294Z,-3.54
2022-12-15T15:52:21.233Z,-3.60
2022-12-15T15:54:53.044Z,-3.63
2022-12-15T15:57:33.872Z,-3.68
2022-12-15T16:00:08.831Z,-3.75
2022-12-15T16:02:57.208Z,-3.84
2022-12-15T16:05:27.832Z,-3.97
2022-12-15T16:08:32.222Z,-4.15
2022-12-15T16:11:34.616Z,-4.33
2022-12-15T16:14:25.834Z,-4.41
2022-12-15T16:17:16.422Z,-4.46
2022-12-15T16:20:09.933Z,-4.55
2022-12-15T16:22:40.952Z,-4.62
2022-12-15T16:25:46.643Z,-4.67
2022-12-15T16:28:30.359Z,-4.71
2022-12-15T16:31:41.736Z,-4.77
2022-12-15T16:34:18.784Z,-4.83
2022-12-15T16:37:26.828Z,-4.86
2022-12-15T16:40:23.638Z,-4.86
2022-12-15T16:43:15.942Z,-4.87
2022-12-15T16:46:07.040Z,-4.90
2022-12-15T16:49:02.389Z,-4.90
2022-12-15T16:51:58.941Z,-4.91
2022-12-15T16:54:49.238Z,-4.93
2022-12-15T16:57:37.330Z,-4.97
2022-12-15T17:00:29.636Z,-4.99
2022-12-15T17:03:28.044Z,-5.00
2022-12-15T17:06:20.297Z,-5.04
2022-12-15T17:09:16.717Z,-5.08
2022-12-15T17:12:11.094Z,-5.11
2022-12-15T17:15:05.663Z,-5.14
2022-12-15T17:17:52.431Z,-5.18
2022-12-15T17:20:44.661Z,-5.18
2022-12-15T17:23:22.521Z,-5.20
2022-12-15T17:26:29.657Z,-5.22
2022-12-15T17:29:33.665Z,-5.24
2022-12-15T17:32:02.926Z,-5.25
2022-12-15T17:34:56.374Z,-5.27
2022-12-15T17:37:48.642Z,-5.27
2022-12-15T17:40:45.230Z,-5.26
2022-12-15T17:43:17.619Z,-5.24
2022-12-15T17:46:11.660Z,-5.24
2022-12-15T17:48:40.130Z,-5.33
2022-12-15T17:51:33.277Z,-5.40
2022-12-15T17:54:24.235Z,-5.43
2022-12-15T17:56:59.436Z,-5.46
2022-12-15T17:59:50.003Z,-5.49
2022-12-15T18:02:45.415Z,-5.48
2022-12-15T18:05:34.683Z,-5.47
2022-12-15T18:08:25.808Z,-5.47
2022-12-15T18:11:23.474Z,-5.44
2022-12-15T18:14:21.332Z,-5.43
2022-12-15T18:20:28.831Z,-5.42
2022-12-15T18:23:23.831Z,-5.47
2022-12-15T18:26:19.098Z,-5.50
2022-12-15T18:32:25.011Z,-5.62
2022-12-15T18:35:39.458Z,-5.63
2022-12-15T18:38:20.975Z,-5.63
2022-12-15T18:40:54.264Z,-5.61
2022-12-15T18:43:33.645Z,-5.61
2022-12-15T18:46:29.705Z,-5.67
2022-12-15T18:49:27.855Z,-5.70
2022-12-15T18:52:18.259Z,-5.73
2022-12-15T18:58:54.852Z,-5.81
2022-12-15T19:02:04.225Z,-5.81
2022-12-15T19:08:01.085Z,-5.75
2022-12-15T19:10:46.168Z,-5.74
2022-12-15T19:14:05.104Z,-5.73
2022-12-15T19:17:13.372Z,-5.74
2022-12-15T19:20:20.193Z,-5.74
2022-12-15T19:26:28.592Z,-5.65
2022-12-15T19:32:38.687Z,-5.66
2022-12-15T19:35:29.862Z,-5.65
2022-12-15T19:41:17.654Z,-5.60
2022-12-15T19:44:11.654Z,-5.55
2022-12-15T19:53:55.199Z,-5.42
2022-12-15T19:57:04.543Z,-5.42
2022-12-15T20:03:56.306Z,-5.33
2022-12-15T20:17:11.039Z,-5.17
2022-12-15T20:23:17.397Z,-5.17
2022-12-15T20:26:13.474Z,-5.14
2022-12-15T20:32:42.279Z,-5.12
2022-12-15T20:39:33.067Z,-5.13
2022-12-15T20:42:32.799Z,-5.15
2022-12-15T20:45:37.529Z,-5.18
2022-12-15T20:48:57.942Z,-5.22
2022-12-15T20:51:57.272Z,-5.24
2022-12-15T20:54:45.631Z,-5.23
2022-12-15T20:57:31.943Z,-5.21
2022-12-15T21:00:48.602Z,-5.19
2022-12-15T21:03:55.615Z,-5.15
2022-12-15T21:10:19.773Z,-5.15
2022-12-15T21:21:04.998Z,-5.11
2022-12-15T21:28:12.056Z,-5.06
2022-12-15T21:31:43.689Z,-5.02
2022-12-15T21:34:36.022Z,-4.97
2022-12-15T21:37:45.868Z,-4.93
2022-12-15T21:41:07.577Z,-4.91
2022-12-15T21:51:36.270Z,-4.81
2022-12-15T21:58:24.540Z,-4.81
2022-12-15T22:01:35.801Z,-4.77
2022-12-15T22:14:07.229Z,-4.64
2022-12-15T22:16:52.542Z,-4.61
2022-12-15T22:19:34.288Z,-4.62
2022-12-15T22:22:30.122Z,-4.62
2022-12-15T22:26:57.767Z,-4.60
2022-12-15T22:29:49.717Z,-4.63
2022-12-15T22:32:32.026Z,-4.61
2022-12-15T22:35:33.271Z,-4.60
2022-12-15T22:38:13.362Z,-4.58
2022-12-15T22:41:06.687Z,-4.58
2022-12-15T22:43:55.270Z,-4.54
2022-12-15T22:46:40.100Z,-4.54
2022-12-15T22:52:26.834Z,-4.54
2022-12-15T22:55:22.248Z,-4.53
2022-12-15T22:58:05.412Z,-4.51
2022-12-15T23:00:53.324Z,-4.50
2022-12-15T23:03:41.740Z,-4.48
2022-12-15T23:06:30.684Z,-4.47
2022-12-15T23:09:36.937Z,-4.46
2022-12-15T23:12:32.966Z,-4.45
2022-12-15T23:15:37.278Z,-4.42
2022-12-15T23:18:13.006Z,-4.39
2022-12-15T23:21:02.586Z,-4.38
2022-12-15T23:23:42.224Z,-4.37
2022-12-15T23:26:22.467Z,-4.35
2022-12-15T23:29:11.749Z,-4.32
2022-12-15T23:31:51.564Z,-4.29
2022-12-15T23:34:24.328Z,-4.30
2022-12-15T23:37:05.427Z,-4.27
2022-12-15T23:39:38.143Z,-4.27
2022-12-15T23:42:08.662Z,-4.28
2022-12-15T23:44:43.914Z,-4.29
2022-12-15T23:47:16.434Z,-4.27
2022-12-15T23:49:46.937Z,-4.25
2022-12-15T23:52:20.010Z,-4.23
2022-12-15T23:54:50.751Z,-4.22
2022-12-15T23:57:21.842Z,-4.22
2022-12-15T23:59:52.808Z,-4.21
